Aviation Digital Data Service (ADDS)

Output produced by METARs form (1658 UTC 23 September 2020)
found at http://aviationweather.gov/metar/data/
 
KBTR 231123Z 2312/2412 10009KT P6SM VCSH BKN015 
     FM231800 12011KT 5SM SHRA BR VCTS BKN020CB 
     FM240300 13010KT P6SM VCSH BKN010 
     FM240600 16009KT P6SM BKN008